createdAt,value
2023-04-21T00:00:22.678Z,34.72
2023-04-21T00:05:25.791Z,34.10
2023-04-21T00:10:28.855Z,33.95
2023-04-21T00:15:33.112Z,33.85
2023-04-21T00:20:37.637Z,33.58
2023-04-21T00:25:40.521Z,34.47
2023-04-21T00:30:44.712Z,33.35
2023-04-21T00:35:47.683Z,33.65
2023-04-21T00:40:50.556Z,33.47
2023-04-21T00:45:54.724Z,33.35
2023-04-21T00:50:57.543Z,33.33
2023-04-21T00:56:00.383Z,32.92
2023-04-21T01:01:05.377Z,33.05
2023-04-21T01:06:08.752Z,33.20
2023-04-21T01:11:13.958Z,33.38
2023-04-21T01:16:19.801Z,33.33
2023-04-21T01:21:23.685Z,32.95
2023-04-21T01:26:27.884Z,32.90
2023-04-21T01:31:31.256Z,32.95
2023-04-21T01:36:34.204Z,33.05
2023-04-21T01:41:38.375Z,32.88
2023-04-21T01:46:41.256Z,33.00
2023-04-21T01:51:44.111Z,32.60
2023-04-21T01:56:48.371Z,33.30
2023-04-21T02:01:51.553Z,32.47
2023-04-21T02:06:54.433Z,32.45
2023-04-21T02:11:58.941Z,32.67
2023-04-21T02:17:03.572Z,32.58
2023-04-21T02:22:07.161Z,32.67
2023-04-21T02:27:11.343Z,32.38
2023-04-21T02:32:24.986Z,32.00
2023-04-21T02:37:34.488Z,32.53
2023-04-21T02:42:38.769Z,32.60
2023-04-21T02:47:41.753Z,33.28
2023-04-21T02:52:44.695Z,32.67
2023-04-21T02:57:48.941Z,34.00
2023-04-21T03:02:53.326Z,31.83
2023-04-21T03:07:56.449Z,33.13
2023-04-21T03:13:00.692Z,32.17
2023-04-21T03:18:03.626Z,32.38
2023-04-21T03:23:06.616Z,31.65
2023-04-21T03:28:10.991Z,31.65
2023-04-21T03:33:13.895Z,32.60
2023-04-21T03:38:17.055Z,32.50
2023-04-21T03:43:21.308Z,32.03
2023-04-21T03:48:24.230Z,33.58
2023-04-21T03:53:27.112Z,32.67
2023-04-21T03:58:31.424Z,36.30
2023-04-21T04:03:34.578Z,35.22
2023-04-21T04:08:37.879Z,34.42
2023-04-21T04:13:42.086Z,34.65
2023-04-21T04:18:45.729Z,32.80
2023-04-21T04:23:51.697Z,32.75
2023-04-21T04:28:56.476Z,31.98
2023-04-21T04:33:59.587Z,32.55
2023-04-21T04:39:02.504Z,32.13
2023-04-21T04:44:07.852Z,32.05
2023-04-21T04:49:10.981Z,32.45
2023-04-21T04:54:13.918Z,32.22
2023-04-21T04:59:18.125Z,32.28
2023-04-21T05:04:21.561Z,32.25
2023-04-21T05:09:24.793Z,34.47
2023-04-21T05:14:29.436Z,31.90
2023-04-21T05:19:32.324Z,32.03
2023-04-21T05:24:35.539Z,32.78
2023-04-21T05:29:39.757Z,32.17
2023-04-21T05:34:42.616Z,33.00
2023-04-21T05:39:45.976Z,32.72
2023-04-21T05:44:50.675Z,33.60
2023-04-21T05:49:53.940Z,33.60
2023-04-21T05:54:56.989Z,33.17
2023-04-21T06:00:01.233Z,32.72
2023-04-21T06:05:04.365Z,39.42
2023-04-21T06:10:08.765Z,44.20
2023-04-21T06:15:13.222Z,42.55
2023-04-21T06:20:17.721Z,35.10
2023-04-21T06:25:20.984Z,34.42
2023-04-21T06:30:25.285Z,34.45
2023-04-21T06:35:28.329Z,34.45
2023-04-21T06:40:31.273Z,33.92
2023-04-21T06:45:35.550Z,34.63
2023-04-21T06:50:38.473Z,36.53
2023-04-21T06:55:41.398Z,35.17
2023-04-21T07:00:45.634Z,35.13
2023-04-21T07:05:48.654Z,36.28
2023-04-21T07:10:51.545Z,35.58
2023-04-21T07:15:55.791Z,36.00
2023-04-21T07:20:58.733Z,35.60
2023-04-21T07:26:01.656Z,36.55
2023-04-21T07:31:06.158Z,36.25
2023-04-21T07:36:09.761Z,37.25
2023-04-21T07:41:13.167Z,36.55
2023-04-21T07:46:17.431Z,36.55
2023-04-21T07:51:20.649Z,36.30
2023-04-21T07:56:23.580Z,36.67
2023-04-21T08:01:27.818Z,37.10
2023-04-21T08:06:33.324Z,37.10
2023-04-21T08:11:36.418Z,36.85
2023-04-21T08:16:42.296Z,36.92
2023-04-21T08:21:45.546Z,37.00
2023-04-21T08:26:48.505Z,37.90
2023-04-21T08:31:52.831Z,38.03
2023-04-21T08:36:55.735Z,36.47
2023-04-21T08:42:00.218Z,36.40
2023-04-21T08:47:05.787Z,37.15
2023-04-21T08:52:08.820Z,37.70
2023-04-21T08:57:15.967Z,38.20
2023-04-21T09:02:21.016Z,38.00
2023-04-21T09:07:34.130Z,38.65
2023-04-21T09:12:40.775Z,39.83
2023-04-21T09:17:46.790Z,42.05
2023-04-21T09:22:51.205Z,38.28
2023-04-21T09:27:56.077Z,38.60
2023-04-21T09:33:02.368Z,37.55
2023-04-21T09:38:11.364Z,38.33
2023-04-21T09:43:14.285Z,38.53
2023-04-21T09:48:21.920Z,39.35
2023-04-21T09:53:27.507Z,38.55
2023-04-21T09:58:40.419Z,38.05
2023-04-21T10:03:46.752Z,39.60
2023-04-21T10:08:51.869Z,39.58
2023-04-21T10:13:55.011Z,39.00
2023-04-21T10:18:59.225Z,39.25
2023-04-21T10:24:02.144Z,39.75
2023-04-21T10:29:06.907Z,39.17
2023-04-21T10:34:22.695Z,39.55
2023-04-21T10:39:30.359Z,40.85
2023-04-21T10:44:33.263Z,39.10
2023-04-21T10:49:41.290Z,39.88
2023-04-21T10:54:46.443Z,38.90
2023-04-21T10:59:50.827Z,40.13
2023-04-21T11:04:56.314Z,38.97
2023-04-21T11:10:01.653Z,38.95
2023-04-21T11:15:07.433Z,37.90
2023-04-21T11:20:12.039Z,38.20
2023-04-21T11:25:19.103Z,38.67
2023-04-21T11:30:22.188Z,38.45
2023-04-21T11:35:26.484Z,37.85
2023-04-21T11:40:29.372Z,38.70
2023-04-21T11:45:32.264Z,38.72
2023-04-21T11:50:38.956Z,37.15
2023-04-21T11:55:43.870Z,37.63
2023-04-21T12:00:47.274Z,36.75
2023-04-21T12:05:57.706Z,37.05
2023-04-21T12:11:01.271Z,37.58
2023-04-21T12:16:04.783Z,36.72
2023-04-21T12:21:09.185Z,37.53
2023-04-21T12:26:12.429Z,35.92
2023-04-21T12:31:15.494Z,35.90
2023-04-21T12:36:19.750Z,36.28
2023-04-21T12:41:22.659Z,36.47
2023-04-21T12:46:25.672Z,37.20
2023-04-21T12:51:29.910Z,36.70
2023-04-21T12:56:32.828Z,36.80
2023-04-21T13:01:35.763Z,36.50
2023-04-21T13:06:41.090Z,36.78
2023-04-21T13:11:44.038Z,36.65
2023-04-21T13:16:47.487Z,36.78
2023-04-21T13:21:54.027Z,36.88
2023-04-21T13:26:57.302Z,36.42
2023-04-21T13:32:00.514Z,36.88
2023-04-21T13:37:05.803Z,36.55
2023-04-21T13:42:08.786Z,36.42
2023-04-21T13:47:11.766Z,36.50
2023-04-21T13:52:16.061Z,36.88
2023-04-21T13:57:26.007Z,36.38
2023-04-21T14:02:29.096Z,38.03
2023-04-21T14:07:33.665Z,38.35
2023-04-21T14:12:36.672Z,38.88
2023-04-21T14:17:39.716Z,39.80
2023-04-21T14:22:44.244Z,39.33
2023-04-21T14:27:47.274Z,41.08
2023-04-21T14:32:52.259Z,39.60
2023-04-21T14:37:56.663Z,43.25
2023-04-21T14:42:59.609Z,39.75
2023-04-21T14:48:02.669Z,38.20
2023-04-21T14:53:07.058Z,36.25
2023-04-21T14:58:09.965Z,35.72
2023-04-21T15:03:12.945Z,36.50
2023-04-21T15:08:18.358Z,36.25
2023-04-21T15:13:21.972Z,36.22
2023-04-21T15:18:24.908Z,36.72
2023-04-21T15:23:29.254Z,36.72
2023-04-21T15:28:32.599Z,36.42
2023-04-21T15:33:36.201Z,36.75
2023-04-21T15:38:40.521Z,36.60
2023-04-21T15:43:43.466Z,36.60
2023-04-21T15:48:46.420Z,36.35
2023-04-21T15:53:51.076Z,36.75
2023-04-21T15:58:54.047Z,36.42
2023-04-21T16:03:57.281Z,37.03
2023-04-21T16:09:01.599Z,36.50
2023-04-21T16:14:04.601Z,36.88
2023-04-21T16:19:07.570Z,36.78
2023-04-21T16:24:12.249Z,37.00
2023-04-21T16:29:15.167Z,37.53
2023-04-21T16:34:18.098Z,36.80
2023-04-21T16:39:22.317Z,37.22
2023-04-21T16:44:25.309Z,38.33
2023-04-21T16:49:30.211Z,38.22
2023-04-21T16:54:35.891Z,37.05
2023-04-21T16:59:39.167Z,37.03
2023-04-21T17:04:42.531Z,37.47
2023-04-21T17:09:46.845Z,37.35
2023-04-21T17:14:49.774Z,37.08
2023-04-21T17:19:54.125Z,37.35
2023-04-21T17:25:04.268Z,37.30
2023-04-21T17:30:09.198Z,37.30
2023-04-21T17:35:12.257Z,37.08
2023-04-21T17:40:16.519Z,36.80
2023-04-21T17:45:19.506Z,36.38
2023-04-21T17:50:22.994Z,36.13
2023-04-21T17:55:27.617Z,36.83
2023-04-21T18:00:34.478Z,36.28
2023-04-21T18:05:37.435Z,36.20
2023-04-21T18:10:41.929Z,37.05
2023-04-21T18:15:44.931Z,36.47
2023-04-21T18:20:49.025Z,36.25
2023-04-21T18:25:53.273Z,35.85
2023-04-21T18:30:56.252Z,36.95
2023-04-21T18:35:59.280Z,35.55
2023-04-21T18:41:03.830Z,36.20
2023-04-21T18:46:07.065Z,36.35
2023-04-21T18:51:09.998Z,36.08
2023-04-21T18:56:14.435Z,36.03
2023-04-21T19:01:18.797Z,35.97
2023-04-21T19:06:21.769Z,36.75
2023-04-21T19:11:26.069Z,35.95
2023-04-21T19:16:29.401Z,40.38
2023-04-21T19:21:33.118Z,36.92
2023-04-21T19:26:37.560Z,36.30
2023-04-21T19:31:40.669Z,36.63
2023-04-21T19:36:43.850Z,36.47
2023-04-21T19:41:48.202Z,35.75
2023-04-21T19:46:51.186Z,35.83
2023-04-21T19:51:54.095Z,36.67
2023-04-21T19:56:58.383Z,36.22
2023-04-21T20:02:01.982Z,36.20
2023-04-21T20:07:05.075Z,36.10
2023-04-21T20:12:09.574Z,39.15
2023-04-21T20:17:12.549Z,37.70
2023-04-21T20:22:15.493Z,36.03
2023-04-21T20:27:19.831Z,37.03
2023-04-21T20:32:22.839Z,37.42
2023-04-21T20:37:25.948Z,36.60
2023-04-21T20:42:30.226Z,36.88
2023-04-21T20:47:33.858Z,37.00
2023-04-21T20:52:36.787Z,36.28
2023-04-21T20:57:41.202Z,37.00
2023-04-21T21:02:44.399Z,36.88
2023-04-21T21:07:48.219Z,38.22
2023-04-21T21:12:52.541Z,35.75
2023-04-21T21:17:55.521Z,36.70
2023-04-21T21:22:58.452Z,36.03
2023-04-21T21:28:02.727Z,35.58
2023-04-21T21:33:05.707Z,36.30
2023-04-21T21:38:08.645Z,36.83
2023-04-21T21:43:12.866Z,36.30
2023-04-21T21:48:16.752Z,36.22
2023-04-21T21:53:19.787Z,36.33
2023-04-21T21:58:24.071Z,35.50
2023-04-21T22:03:27.257Z,35.83
2023-04-21T22:08:30.362Z,36.05
2023-04-21T22:13:34.703Z,35.72
2023-04-21T22:18:37.678Z,35.15
2023-04-21T22:23:40.577Z,35.55
2023-04-21T22:28:47.126Z,35.53
2023-04-21T22:33:50.046Z,36.55
2023-04-21T22:38:52.979Z,36.08
2023-04-21T22:43:57.226Z,35.53
2023-04-21T22:49:00.226Z,34.90
2023-04-21T22:54:03.368Z,35.13
2023-04-21T22:59:07.651Z,35.08
2023-04-21T23:04:10.691Z,35.33
2023-04-21T23:09:13.743Z,36.03
2023-04-21T23:14:18.034Z,35.42
2023-04-21T23:19:21.497Z,35.60
2023-04-21T23:24:24.473Z,35.78
2023-04-21T23:29:28.712Z,35.88
2023-04-21T23:34:31.676Z,35.38
2023-04-21T23:39:34.741Z,34.88
2023-04-21T23:44:40.312Z,35.15
2023-04-21T23:49:43.382Z,35.33
2023-04-21T23:54:46.356Z,35.13
2023-04-21T23:59:50.599Z,34.75
